createdAt,value
2023-05-12T00:00:08.070Z,11.69
2023-05-12T00:00:40.647Z,11.69
2023-05-12T00:00:59.253Z,11.69
2023-05-12T00:01:14.297Z,11.69
2023-05-12T00:01:28.057Z,11.70
2023-05-12T00:01:41.842Z,11.70
2023-05-12T00:01:54.383Z,11.70
2023-05-12T00:02:06.899Z,11.70
2023-05-12T00:02:19.408Z,11.70
2023-05-12T00:02:32.342Z,11.70
2023-05-12T00:02:45.092Z,11.71
2023-05-12T00:02:57.808Z,11.70
2023-05-12T00:03:11.691Z,11.72
2023-05-12T00:03:24.579Z,11.72
2023-05-12T00:03:37.569Z,11.72
2023-05-12T00:03:50.438Z,11.73
2023-05-12T00:04:03.360Z,11.73
2023-05-12T00:04:16.086Z,11.72
2023-05-12T00:04:29.685Z,11.73
2023-05-12T00:04:42.320Z,11.72
2023-05-12T00:04:54.995Z,11.72
2023-05-12T00:05:08.522Z,11.72
2023-05-12T00:05:21.095Z,11.72
2023-05-12T00:05:33.650Z,11.72
2023-05-12T00:05:46.232Z,11.71
2023-05-12T00:06:03.574Z,11.72
2023-05-12T00:06:17.376Z,11.71
2023-05-12T00:06:30.146Z,11.72
2023-05-12T00:06:42.672Z,11.72
2023-05-12T00:06:55.171Z,11.74
2023-05-12T00:07:07.915Z,11.73
2023-05-12T00:07:20.958Z,11.74
2023-05-12T00:07:33.535Z,11.73
2023-05-12T00:07:46.042Z,11.76
2023-05-12T00:07:59.575Z,11.75
2023-05-12T00:08:12.118Z,11.76
2023-05-12T00:08:24.627Z,11.76
2023-05-12T00:08:37.250Z,11.77
2023-05-12T00:08:50.852Z,11.78
2023-05-12T00:09:03.509Z,11.78
2023-05-12T00:09:16.104Z,11.78
2023-05-12T00:09:29.608Z,11.78
2023-05-12T00:09:42.331Z,11.78
2023-05-12T00:09:55.121Z,11.79
2023-05-12T00:10:08.326Z,11.79
2023-05-12T00:10:21.396Z,11.79
2023-05-12T00:10:35.396Z,11.79
2023-05-12T00:10:48.031Z,11.80
2023-05-12T00:11:02.659Z,11.81
2023-05-12T00:11:15.269Z,11.81
2023-05-12T00:11:27.845Z,11.80
2023-05-12T00:11:40.572Z,11.81
2023-05-12T00:11:53.441Z,11.81
2023-05-12T00:12:06.381Z,11.82
2023-05-12T00:12:18.974Z,11.83
2023-05-12T00:12:32.959Z,11.83
2023-05-12T00:12:45.472Z,11.83
2023-05-12T00:12:58.098Z,11.83
2023-05-12T00:13:10.745Z,11.84
2023-05-12T00:13:24.076Z,11.85
2023-05-12T00:13:36.952Z,11.85
2023-05-12T00:13:49.572Z,11.85
2023-05-12T00:14:03.209Z,11.85
2023-05-12T00:14:16.277Z,11.85
2023-05-12T00:14:28.822Z,11.85
2023-05-12T00:14:41.299Z,11.85
2023-05-12T00:14:53.791Z,11.86
2023-05-12T00:15:07.492Z,11.85
2023-05-12T00:15:20.097Z,11.87
2023-05-12T00:15:32.663Z,11.85
2023-05-12T00:15:46.214Z,11.85
2023-05-12T00:15:59.338Z,11.85
2023-05-12T00:16:15.504Z,11.85
2023-05-12T00:16:28.094Z,11.85
2023-05-12T00:16:40.698Z,11.86
2023-05-12T00:16:53.285Z,11.85
2023-05-12T00:17:06.747Z,11.86
2023-05-12T00:17:20.341Z,11.85
2023-05-12T00:17:33.006Z,11.85
2023-05-12T00:17:45.610Z,11.85
2023-05-12T00:17:58.492Z,11.85
2023-05-12T00:18:11.030Z,11.85
2023-05-12T00:18:24.008Z,11.85
2023-05-12T00:18:36.659Z,11.85
2023-05-12T00:18:50.174Z,11.85
2023-05-12T00:19:02.857Z,11.85
2023-05-12T00:19:15.431Z,11.86
2023-05-12T00:19:27.905Z,11.85
2023-05-12T00:19:43.875Z,11.86
2023-05-12T00:19:56.397Z,11.85
2023-05-12T00:20:10.123Z,11.87
2023-05-12T00:20:22.742Z,11.86
2023-05-12T00:20:36.680Z,11.87
2023-05-12T00:20:49.488Z,11.86
2023-05-12T00:21:02.043Z,11.86
2023-05-12T00:21:14.636Z,11.87
2023-05-12T00:21:27.152Z,11.87
2023-05-12T00:21:41.527Z,11.87
2023-05-12T00:21:55.026Z,11.87
2023-05-12T00:22:07.523Z,11.88
2023-05-12T00:22:20.147Z,11.88
2023-05-12T00:22:32.820Z,11.88
2023-05-12T00:22:45.348Z,11.89
2023-05-12T00:22:57.882Z,11.89
2023-05-12T00:23:10.377Z,11.89
2023-05-12T00:23:23.515Z,11.89
2023-05-12T00:23:37.168Z,11.89
2023-05-12T00:23:49.714Z,11.90
2023-05-12T00:24:02.385Z,11.91
2023-05-12T00:24:14.971Z,11.89
2023-05-12T00:24:28.057Z,11.89
2023-05-12T00:24:40.734Z,11.89
2023-05-12T00:24:53.289Z,11.89
2023-05-12T00:25:07.243Z,11.89
2023-05-12T00:25:19.689Z,11.89
2023-05-12T00:25:32.376Z,11.90
2023-05-12T00:25:44.889Z,11.89
2023-05-12T00:25:57.401Z,11.89
2023-05-12T00:26:09.944Z,11.89
2023-05-12T00:26:22.437Z,11.89
2023-05-12T00:26:36.198Z,11.87
2023-05-12T00:26:48.799Z,11.89
2023-05-12T00:27:01.471Z,11.88
2023-05-12T00:27:14.625Z,11.88
2023-05-12T00:27:27.132Z,11.88
2023-05-12T00:27:39.588Z,11.88
2023-05-12T00:27:52.046Z,11.88
2023-05-12T00:28:04.857Z,11.88
2023-05-12T00:28:19.228Z,11.88
2023-05-12T00:28:31.941Z,11.88
2023-05-12T00:28:44.468Z,11.88
2023-05-12T00:28:57.005Z,11.88
2023-05-12T00:29:09.595Z,11.89
2023-05-12T00:29:22.113Z,11.88
2023-05-12T00:29:34.831Z,11.87
2023-05-12T00:29:47.339Z,11.88
2023-05-12T00:29:59.872Z,11.88
2023-05-12T00:30:13.805Z,11.88
2023-05-12T00:30:26.376Z,11.87
2023-05-12T00:30:38.922Z,11.88
2023-05-12T00:30:51.524Z,11.88
2023-05-12T00:31:04.346Z,11.87
2023-05-12T00:31:18.428Z,11.88
2023-05-12T00:31:31.278Z,11.88
2023-05-12T00:31:44.776Z,11.88
2023-05-12T00:31:57.633Z,11.89
2023-05-12T00:32:10.298Z,11.89
2023-05-12T00:32:22.894Z,11.89
2023-05-12T00:32:35.541Z,11.89
2023-05-12T00:32:48.128Z,11.89
2023-05-12T00:33:01.785Z,11.88
2023-05-12T00:33:14.501Z,11.88
2023-05-12T00:33:27.063Z,11.89
2023-05-12T00:33:39.528Z,11.89
2023-05-12T00:33:52.077Z,11.89
2023-05-12T00:34:04.596Z,11.89
2023-05-12T00:34:17.120Z,11.88
2023-05-12T00:34:29.591Z,11.89
2023-05-12T00:34:42.386Z,11.88
2023-05-12T00:34:54.920Z,11.89
2023-05-12T00:35:09.785Z,11.89
2023-05-12T00:35:22.512Z,11.89
2023-05-12T00:35:35.331Z,11.88
2023-05-12T00:35:47.958Z,11.88
2023-05-12T00:36:00.540Z,11.88
2023-05-12T00:36:13.085Z,11.89
2023-05-12T00:36:27.066Z,11.88
2023-05-12T00:36:41.026Z,11.89
2023-05-12T00:36:53.712Z,11.88
2023-05-12T00:37:06.437Z,11.88
2023-05-12T00:37:18.959Z,11.88
2023-05-12T00:37:31.575Z,11.88
2023-05-12T00:37:44.462Z,11.88
2023-05-12T00:37:56.986Z,11.88
2023-05-12T00:38:10.441Z,11.89
2023-05-12T00:38:22.945Z,11.87
2023-05-12T00:38:37.238Z,11.87
2023-05-12T00:38:49.777Z,11.86
2023-05-12T00:39:02.535Z,11.86
2023-05-12T00:39:15.488Z,11.85
2023-05-12T00:39:27.981Z,11.86
2023-05-12T00:39:40.617Z,11.86
2023-05-12T00:39:53.117Z,11.86
2023-05-12T00:40:07.925Z,11.87
2023-05-12T00:40:20.991Z,11.85
2023-05-12T00:40:33.764Z,11.84
2023-05-12T00:40:46.309Z,11.84
2023-05-12T00:40:58.809Z,11.84
2023-05-12T00:41:11.333Z,11.84
2023-05-12T00:41:25.023Z,11.84
2023-05-12T00:41:37.505Z,11.84
2023-05-12T00:41:55.517Z,11.85
2023-05-12T00:42:08.342Z,11.84
2023-05-12T00:42:20.896Z,11.84
2023-05-12T00:42:34.380Z,11.85
2023-05-12T00:42:47.917Z,11.85
2023-05-12T00:43:00.714Z,11.84
2023-05-12T00:43:13.223Z,11.84
2023-05-12T00:43:25.713Z,11.84
2023-05-12T00:43:38.182Z,11.83
2023-05-12T00:43:50.945Z,11.84
2023-05-12T00:44:03.762Z,11.84
2023-05-12T00:44:18.441Z,11.84
2023-05-12T00:44:32.061Z,11.84
2023-05-12T00:44:44.595Z,11.82
2023-05-12T00:44:57.086Z,11.83
2023-05-12T00:45:10.715Z,11.84
2023-05-12T00:45:23.767Z,11.84
2023-05-12T00:45:36.903Z,11.83
2023-05-12T00:45:50.691Z,11.82
2023-05-12T00:46:05.612Z,11.83
2023-05-12T00:46:21.847Z,11.83
2023-05-12T00:46:34.802Z,11.82
2023-05-12T00:46:47.468Z,11.81
2023-05-12T00:47:00.230Z,11.81
2023-05-12T00:47:12.929Z,11.80
2023-05-12T00:47:25.862Z,11.80
2023-05-12T00:47:39.707Z,11.80
2023-05-12T00:47:52.961Z,11.80
2023-05-12T00:48:06.780Z,11.78
2023-05-12T00:48:19.721Z,11.79
2023-05-12T00:48:33.404Z,11.77
2023-05-12T00:48:46.432Z,11.79
2023-05-12T00:49:00.611Z,11.77
2023-05-12T00:49:13.690Z,11.78
2023-05-12T00:49:27.313Z,11.77
2023-05-12T00:49:42.604Z,11.77
2023-05-12T00:49:55.219Z,11.76
2023-05-12T00:50:08.698Z,11.75
2023-05-12T00:50:21.940Z,11.77
2023-05-12T00:50:35.900Z,11.75
2023-05-12T00:50:48.477Z,11.73
2023-05-12T00:51:02.204Z,11.74
2023-05-12T00:51:16.609Z,11.74
2023-05-12T00:51:29.150Z,11.72
2023-05-12T00:51:41.695Z,11.73
2023-05-12T00:51:54.996Z,11.73
2023-05-12T00:52:07.505Z,11.72
2023-05-12T00:52:21.610Z,11.72
2023-05-12T00:52:34.173Z,11.72
2023-05-12T00:52:47.136Z,11.72
2023-05-12T00:53:01.514Z,11.70
2023-05-12T00:53:14.158Z,11.70
2023-05-12T00:53:35.010Z,11.70
2023-05-12T00:53:55.499Z,11.70
2023-05-12T00:54:08.472Z,11.69
2023-05-12T00:54:21.063Z,11.69
2023-05-12T00:54:35.016Z,11.69
2023-05-12T00:54:48.789Z,11.69
2023-05-12T00:55:02.135Z,11.69
2023-05-12T00:55:16.077Z,11.69
2023-05-12T00:55:29.679Z,11.69
2023-05-12T00:55:42.472Z,11.69
2023-05-12T00:55:55.647Z,11.69
2023-05-12T00:56:09.074Z,11.69
2023-05-12T00:56:21.926Z,11.69
2023-05-12T00:56:39.338Z,11.68
2023-05-12T00:56:53.040Z,11.68
2023-05-12T00:57:06.581Z,11.68
2023-05-12T00:57:20.815Z,11.68
2023-05-12T00:57:34.007Z,11.67
2023-05-12T00:57:46.692Z,11.67
2023-05-12T00:58:00.670Z,11.67
2023-05-12T00:58:13.587Z,11.66
2023-05-12T00:58:26.100Z,11.65
2023-05-12T00:58:38.827Z,11.65
2023-05-12T00:58:51.348Z,11.65
2023-05-12T00:59:03.910Z,11.65
2023-05-12T00:59:16.485Z,11.63
2023-05-12T00:59:29.671Z,11.64
2023-05-12T00:59:43.297Z,11.63
2023-05-12T00:59:55.988Z,11.63
2023-05-12T01:00:09.425Z,11.63
2023-05-12T01:00:22.562Z,11.63
2023-05-12T01:00:35.321Z,11.62
2023-05-12T01:00:47.878Z,11.61
2023-05-12T01:01:00.742Z,11.61
2023-05-12T01:01:13.676Z,11.61
2023-05-12T01:01:30.300Z,11.60
2023-05-12T01:01:43.117Z,11.60
2023-05-12T01:01:56.437Z,11.61
2023-05-12T01:02:09.083Z,11.60
2023-05-12T01:02:22.758Z,11.60
2023-05-12T01:02:36.499Z,11.59
2023-05-12T01:02:49.481Z,11.59
2023-05-12T01:03:03.328Z,11.58
2023-05-12T01:03:16.500Z,11.57
2023-05-12T01:03:29.683Z,11.57
2023-05-12T01:03:42.429Z,11.56
2023-05-12T01:03:54.962Z,11.56
2023-05-12T01:04:07.695Z,11.55
2023-05-12T01:04:20.262Z,11.55
2023-05-12T01:04:33.601Z,11.54
2023-05-12T01:04:47.078Z,11.54
2023-05-12T01:05:00.767Z,11.55
2023-05-12T01:05:13.956Z,11.53
2023-05-12T01:05:30.911Z,11.54
2023-05-12T01:05:50.033Z,11.54
2023-05-12T01:06:10.522Z,11.53
2023-05-12T01:06:30.529Z,11.53
2023-05-12T01:06:48.718Z,11.53
2023-05-12T01:07:08.503Z,11.54
2023-05-12T01:07:23.047Z,11.53
2023-05-12T01:07:36.771Z,11.52
2023-05-12T01:07:50.008Z,11.51
2023-05-12T01:08:04.754Z,11.51
2023-05-12T01:08:17.897Z,11.52
2023-05-12T01:08:31.772Z,11.51
2023-05-12T01:08:44.420Z,11.50
2023-05-12T01:08:58.116Z,11.50
2023-05-12T01:09:10.698Z,11.49
2023-05-12T01:09:24.353Z,11.50
2023-05-12T01:09:36.913Z,11.49
2023-05-12T01:09:54.261Z,11.49
2023-05-12T01:10:18.181Z,11.48
2023-05-12T01:10:31.037Z,11.49
2023-05-12T01:10:44.430Z,11.47
2023-05-12T01:10:57.896Z,11.48
2023-05-12T01:11:10.450Z,11.48
2023-05-12T01:11:23.441Z,11.47
2023-05-12T01:11:36.200Z,11.47
2023-05-12T01:11:48.684Z,11.46
2023-05-12T01:12:01.206Z,11.46
2023-05-12T01:12:13.979Z,11.46
2023-05-12T01:12:28.021Z,11.46
2023-05-12T01:12:40.545Z,11.46
2023-05-12T01:12:54.004Z,11.45
2023-05-12T01:13:06.784Z,11.46
2023-05-12T01:13:19.314Z,11.45
2023-05-12T01:13:31.845Z,11.45
2023-05-12T01:13:44.317Z,11.45
2023-05-12T01:13:56.796Z,11.45
2023-05-12T01:14:09.348Z,11.45
2023-05-12T01:14:21.862Z,11.45
2023-05-12T01:14:34.386Z,11.45
2023-05-12T01:14:48.068Z,11.44
2023-05-12T01:15:01.097Z,11.43
2023-05-12T01:15:13.584Z,11.44
2023-05-12T01:15:26.167Z,11.43
2023-05-12T01:15:42.224Z,11.44
2023-05-12T01:15:56.446Z,11.45
2023-05-12T01:16:13.440Z,11.45
2023-05-12T01:16:35.814Z,11.46
2023-05-12T01:16:53.010Z,11.46
2023-05-12T01:17:11.582Z,11.46
2023-05-12T01:17:32.221Z,11.47
2023-05-12T01:17:51.732Z,11.47
2023-05-12T01:18:06.690Z,11.47
2023-05-12T01:18:20.490Z,11.48
2023-05-12T01:18:37.198Z,11.49
2023-05-12T01:18:54.650Z,11.48
2023-05-12T01:19:16.677Z,11.50
2023-05-12T01:19:41.136Z,11.49
2023-05-12T01:19:56.472Z,11.49
2023-05-12T01:20:12.070Z,11.49
2023-05-12T01:20:27.935Z,11.49
2023-05-12T01:20:42.648Z,11.48
2023-05-12T01:20:56.389Z,11.48
2023-05-12T01:21:11.404Z,11.48
2023-05-12T01:21:24.034Z,11.47
2023-05-12T01:21:37.054Z,11.47
2023-05-12T01:21:49.698Z,11.47
2023-05-12T01:22:02.834Z,11.47
2023-05-12T01:22:17.619Z,11.47
2023-05-12T01:22:33.981Z,11.46
2023-05-12T01:22:49.362Z,11.47
2023-05-12T01:23:02.473Z,11.47
2023-05-12T01:23:19.507Z,11.47
2023-05-12T01:23:35.441Z,11.46
2023-05-12T01:23:52.168Z,11.46
2023-05-12T01:24:08.668Z,11.47
2023-05-12T01:24:28.276Z,11.46
2023-05-12T01:24:46.808Z,11.46
2023-05-12T01:25:02.802Z,11.47
2023-05-12T01:25:17.083Z,11.46
2023-05-12T01:25:33.170Z,11.46
2023-05-12T01:25:50.185Z,11.47
2023-05-12T01:26:06.874Z,11.48
2023-05-12T01:26:19.583Z,11.48
2023-05-12T01:26:33.390Z,11.48
2023-05-12T01:26:45.937Z,11.48
2023-05-12T01:27:00.281Z,11.47
2023-05-12T01:27:14.164Z,11.47
2023-05-12T01:27:27.489Z,11.47
2023-05-12T01:27:42.293Z,11.47
2023-05-12T01:27:55.430Z,11.46
2023-05-12T01:28:08.452Z,11.47
2023-05-12T01:28:22.227Z,11.46
2023-05-12T01:28:36.096Z,11.46
2023-05-12T01:28:49.322Z,11.46
2023-05-12T01:29:04.431Z,11.45
2023-05-12T01:29:18.299Z,11.45
2023-05-12T01:29:32.316Z,11.45
2023-05-12T01:29:46.702Z,11.44
2023-05-12T01:30:01.378Z,11.44
2023-05-12T01:30:18.496Z,11.43
2023-05-12T01:30:33.280Z,11.44
2023-05-12T01:30:46.230Z,11.44
2023-05-12T01:30:59.490Z,11.44
2023-05-12T01:31:13.873Z,11.44
2023-05-12T01:31:26.553Z,11.43
2023-05-12T01:31:39.304Z,11.43
2023-05-12T01:31:52.143Z,11.43
2023-05-12T01:32:05.616Z,11.42
2023-05-12T01:32:19.673Z,11.43
2023-05-12T01:32:32.376Z,11.42
2023-05-12T01:32:45.180Z,11.42
2023-05-12T01:32:58.186Z,11.42
2023-05-12T01:33:10.825Z,11.42
2023-05-12T01:33:23.581Z,11.43
2023-05-12T01:33:36.948Z,11.44
2023-05-12T01:33:50.554Z,11.42
2023-05-12T01:34:03.032Z,11.42
2023-05-12T01:34:16.333Z,11.43
2023-05-12T01:34:28.871Z,11.44
2023-05-12T01:34:42.629Z,11.43
2023-05-12T01:34:55.161Z,11.43
2023-05-12T01:35:08.375Z,11.43
2023-05-12T01:35:22.039Z,11.43
2023-05-12T01:35:34.579Z,11.43
2023-05-12T01:35:47.394Z,11.43
2023-05-12T01:35:59.891Z,11.42
2023-05-12T01:36:12.376Z,11.42
2023-05-12T01:36:25.011Z,11.42
2023-05-12T01:36:37.529Z,11.42
2023-05-12T01:36:50.051Z,11.41
2023-05-12T01:37:02.641Z,11.41
2023-05-12T01:37:16.313Z,11.40
2023-05-12T01:37:29.125Z,11.40
2023-05-12T01:37:41.656Z,11.40
2023-05-12T01:37:54.247Z,11.41
2023-05-12T01:38:06.716Z,11.40
2023-05-12T01:38:19.467Z,11.40
2023-05-12T01:38:32.152Z,11.40
2023-05-12T01:38:44.691Z,11.40
2023-05-12T01:38:58.173Z,11.39
2023-05-12T01:39:10.760Z,11.40
2023-05-12T01:39:23.248Z,11.39
2023-05-12T01:39:36.368Z,11.38
2023-05-12T01:39:48.856Z,11.40
2023-05-12T01:40:02.039Z,11.39
2023-05-12T01:40:14.707Z,11.39
2023-05-12T01:40:28.595Z,11.39
2023-05-12T01:40:41.114Z,11.39
2023-05-12T01:40:53.616Z,11.38
2023-05-12T01:41:07.513Z,11.37
2023-05-12T01:41:19.994Z,11.38
2023-05-12T01:41:32.478Z,11.37
2023-05-12T01:41:44.973Z,11.36
2023-05-12T01:41:57.609Z,11.36
2023-05-12T01:42:11.467Z,11.35
2023-05-12T01:42:24.003Z,11.35
2023-05-12T01:42:41.778Z,11.34
2023-05-12T01:42:54.842Z,11.32
2023-05-12T01:43:07.375Z,11.33
2023-05-12T01:43:20.857Z,11.32
2023-05-12T01:43:34.663Z,11.30
2023-05-12T01:43:48.192Z,11.29
2023-05-12T01:44:00.704Z,11.29
2023-05-12T01:44:13.229Z,11.31
2023-05-12T01:44:25.823Z,11.29
2023-05-12T01:44:38.419Z,11.28
2023-05-12T01:44:51.063Z,11.27
2023-05-12T01:45:03.870Z,11.28
2023-05-12T01:45:16.542Z,11.28
2023-05-12T01:45:30.036Z,11.26
2023-05-12T01:45:42.771Z,11.27
2023-05-12T01:45:55.301Z,11.27
2023-05-12T01:46:10.803Z,11.26
2023-05-12T01:46:23.445Z,11.26
2023-05-12T01:46:36.598Z,11.25
2023-05-12T01:46:49.681Z,11.26
2023-05-12T01:47:02.510Z,11.25
2023-05-12T01:47:16.205Z,11.25
2023-05-12T01:47:28.784Z,11.24
2023-05-12T01:47:41.445Z,11.24
2023-05-12T01:47:53.972Z,11.25
2023-05-12T01:48:06.543Z,11.24
2023-05-12T01:48:19.197Z,11.23
2023-05-12T01:48:31.947Z,11.24
2023-05-12T01:48:45.396Z,11.23
2023-05-12T01:48:57.887Z,11.24
2023-05-12T01:49:10.492Z,11.23
2023-05-12T01:49:23.144Z,11.23
2023-05-12T01:49:35.981Z,11.21
2023-05-12T01:49:48.496Z,11.21
2023-05-12T01:50:02.111Z,11.22
2023-05-12T01:50:14.641Z,11.21
2023-05-12T01:50:27.540Z,11.20
2023-05-12T01:50:40.051Z,11.20
2023-05-12T01:50:52.575Z,11.21
2023-05-12T01:51:07.653Z,11.21
2023-05-12T01:51:20.266Z,11.20
2023-05-12T01:51:32.795Z,11.20
2023-05-12T01:51:45.352Z,11.20
2023-05-12T01:51:58.843Z,11.19
2023-05-12T01:52:11.549Z,11.20
2023-05-12T01:52:25.158Z,11.19
2023-05-12T01:52:37.781Z,11.20
2023-05-12T01:52:50.521Z,11.19
2023-05-12T01:53:03.099Z,11.19
2023-05-12T01:53:15.972Z,11.20
2023-05-12T01:53:28.437Z,11.19
2023-05-12T01:53:42.275Z,11.19
2023-05-12T01:53:54.805Z,11.19
2023-05-12T01:54:07.617Z,11.18
2023-05-12T01:54:20.169Z,11.18
2023-05-12T01:54:32.688Z,11.19
2023-05-12T01:54:45.202Z,11.18
2023-05-12T01:54:57.699Z,11.17
2023-05-12T01:55:11.264Z,11.17
2023-05-12T01:55:23.783Z,11.17
2023-05-12T01:55:36.316Z,11.16
2023-05-12T01:55:48.841Z,11.16
2023-05-12T01:56:01.641Z,11.16
2023-05-12T01:56:15.631Z,11.15
2023-05-12T01:56:28.892Z,11.15
2023-05-12T01:56:42.089Z,11.14
2023-05-12T01:56:55.623Z,11.15
2023-05-12T01:57:08.462Z,11.14
2023-05-12T01:57:20.936Z,11.12
2023-05-12T01:57:33.438Z,11.13
2023-05-12T01:57:45.960Z,11.12
2023-05-12T01:57:58.457Z,11.11
2023-05-12T01:58:10.909Z,11.13
2023-05-12T01:58:24.435Z,11.13
2023-05-12T01:58:36.930Z,11.13
2023-05-12T01:58:50.306Z,11.12
2023-05-12T01:59:03.022Z,11.13
2023-05-12T01:59:15.597Z,11.12
2023-05-12T01:59:28.214Z,11.11
2023-05-12T01:59:40.738Z,11.12
2023-05-12T01:59:54.234Z,11.13
2023-05-12T02:00:08.944Z,11.14
2023-05-12T02:00:21.943Z,11.13
2023-05-12T02:00:34.644Z,11.13
2023-05-12T02:00:47.417Z,11.13
2023-05-12T02:00:59.963Z,11.13
2023-05-12T02:01:13.542Z,11.13
2023-05-12T02:01:28.799Z,11.13
2023-05-12T02:01:41.495Z,11.14
2023-05-12T02:01:54.050Z,11.13
2023-05-12T02:02:06.724Z,11.13
2023-05-12T02:02:19.324Z,11.14
2023-05-12T02:02:34.015Z,11.13
2023-05-12T02:02:47.663Z,11.12
2023-05-12T02:03:00.411Z,11.13
2023-05-12T02:03:13.094Z,11.13
2023-05-12T02:03:25.749Z,11.12
2023-05-12T02:03:38.669Z,11.13
2023-05-12T02:03:51.467Z,11.12
2023-05-12T02:04:04.601Z,11.12
2023-05-12T02:04:17.359Z,11.13
2023-05-12T02:04:30.935Z,11.11
2023-05-12T02:04:43.709Z,11.12
2023-05-12T02:04:56.194Z,11.11
2023-05-12T02:05:09.673Z,11.11
2023-05-12T02:05:22.361Z,11.12
2023-05-12T02:05:34.953Z,11.11
2023-05-12T02:05:47.651Z,11.11
2023-05-12T02:06:00.139Z,11.11
2023-05-12T02:06:12.666Z,11.10
2023-05-12T02:06:26.366Z,11.10
2023-05-12T02:06:38.961Z,11.10
2023-05-12T02:06:52.078Z,11.09
2023-05-12T02:07:04.786Z,11.09
2023-05-12T02:07:17.399Z,11.08
2023-05-12T02:07:29.978Z,11.08
2023-05-12T02:07:42.547Z,11.08
2023-05-12T02:07:56.049Z,11.08
2023-05-12T02:08:08.641Z,11.07
2023-05-12T02:08:21.598Z,11.08
2023-05-12T02:08:34.212Z,11.07
2023-05-12T02:08:46.741Z,11.08
2023-05-12T02:08:59.340Z,11.08
2023-05-12T02:09:11.899Z,11.08
2023-05-12T02:09:25.527Z,11.07
2023-05-12T02:09:38.281Z,11.07
2023-05-12T02:09:51.104Z,11.06
2023-05-12T02:10:04.037Z,11.06
2023-05-12T02:10:16.872Z,11.05
2023-05-12T02:10:29.443Z,11.05
2023-05-12T02:10:42.035Z,11.05
2023-05-12T02:11:06.035Z,11.05
2023-05-12T02:11:19.947Z,11.03
2023-05-12T02:11:32.495Z,11.05
2023-05-12T02:11:45.134Z,11.04
2023-05-12T02:11:58.044Z,11.05
2023-05-12T02:12:10.522Z,11.04
2023-05-12T02:12:23.011Z,11.03
2023-05-12T02:12:36.673Z,11.04
2023-05-12T02:12:49.239Z,11.03
2023-05-12T02:13:02.248Z,11.03
2023-05-12T02:13:15.372Z,11.03
2023-05-12T02:13:28.439Z,11.02
2023-05-12T02:13:41.020Z,11.02
2023-05-12T02:13:53.517Z,11.02
2023-05-12T02:14:06.560Z,11.02
2023-05-12T02:14:20.052Z,11.01
2023-05-12T02:14:32.609Z,11.00
2023-05-12T02:14:45.160Z,11.00
2023-05-12T02:14:57.683Z,10.99
2023-05-12T02:15:10.626Z,11.00
2023-05-12T02:15:23.275Z,10.99
2023-05-12T02:15:36.105Z,10.99
2023-05-12T02:15:49.615Z,10.99
2023-05-12T02:16:02.802Z,10.97
2023-05-12T02:16:15.488Z,10.97
2023-05-12T02:16:28.115Z,10.97
2023-05-12T02:16:40.868Z,10.96
2023-05-12T02:16:53.530Z,10.95
2023-05-12T02:17:06.103Z,10.94
2023-05-12T02:17:18.586Z,10.94
2023-05-12T02:17:32.162Z,10.94
2023-05-12T02:17:44.862Z,10.94
2023-05-12T02:17:58.527Z,10.93
2023-05-12T02:18:11.093Z,10.92
2023-05-12T02:18:23.618Z,10.93
2023-05-12T02:18:36.186Z,10.92
2023-05-12T02:18:48.826Z,10.92
2023-05-12T02:19:02.502Z,10.92
2023-05-12T02:19:15.049Z,10.92
2023-05-12T02:19:27.826Z,10.92
2023-05-12T02:19:40.416Z,10.92
2023-05-12T02:19:52.932Z,10.93
2023-05-12T02:20:06.810Z,10.92
2023-05-12T02:20:19.677Z,10.92
2023-05-12T02:20:33.381Z,10.92
2023-05-12T02:20:45.859Z,10.93
2023-05-12T02:20:58.338Z,10.92
2023-05-12T02:21:10.872Z,10.92
2023-05-12T02:21:23.355Z,10.92
2023-05-12T02:21:35.874Z,10.91
2023-05-12T02:21:48.574Z,10.91
2023-05-12T02:22:01.098Z,10.91
2023-05-12T02:22:14.596Z,10.91
2023-05-12T02:22:27.136Z,10.89
2023-05-12T02:22:39.746Z,10.89
2023-05-12T02:22:52.267Z,10.89
2023-05-12T02:23:05.029Z,10.89
2023-05-12T02:23:17.489Z,10.88
2023-05-12T02:23:30.037Z,10.89
2023-05-12T02:23:42.604Z,10.89
2023-05-12T02:23:56.309Z,10.87
2023-05-12T02:24:08.851Z,10.87
2023-05-12T02:24:21.633Z,10.87
2023-05-12T02:24:34.252Z,10.86
2023-05-12T02:24:46.972Z,10.86
2023-05-12T02:24:59.508Z,10.86
2023-05-12T02:25:12.038Z,10.87
2023-05-12T02:25:24.585Z,10.85
2023-05-12T02:25:37.044Z,10.85
2023-05-12T02:25:50.624Z,10.85
2023-05-12T02:26:03.156Z,10.84
2023-05-12T02:26:15.791Z,10.85
2023-05-12T02:26:29.670Z,10.85
2023-05-12T02:26:42.562Z,10.84
2023-05-12T02:26:55.047Z,10.84
2023-05-12T02:27:07.596Z,10.83
2023-05-12T02:27:20.087Z,10.83
2023-05-12T02:27:33.590Z,10.84
2023-05-12T02:27:46.253Z,10.83
2023-05-12T02:27:58.788Z,10.83
2023-05-12T02:28:11.831Z,10.83
2023-05-12T02:28:24.395Z,10.82
2023-05-12T02:28:37.364Z,10.82
2023-05-12T02:28:49.871Z,10.81
2023-05-12T02:29:02.420Z,10.80
2023-05-12T02:29:15.960Z,10.80
2023-05-12T02:29:28.486Z,10.80
2023-05-12T02:29:42.008Z,10.78
2023-05-12T02:29:54.512Z,10.78
2023-05-12T02:30:08.215Z,10.79
2023-05-12T02:30:21.934Z,10.78
2023-05-12T02:30:34.930Z,10.77
2023-05-12T02:30:48.819Z,10.77
2023-05-12T02:31:01.298Z,10.78
2023-05-12T02:31:13.766Z,10.77
2023-05-12T02:31:26.585Z,10.77
2023-05-12T02:31:39.241Z,10.78
2023-05-12T02:31:51.885Z,10.77
2023-05-12T02:32:06.212Z,10.77
2023-05-12T02:32:18.917Z,10.78
2023-05-12T02:32:31.661Z,10.77
2023-05-12T02:32:44.232Z,10.77
2023-05-12T02:32:56.822Z,10.77
2023-05-12T02:33:09.350Z,10.76
2023-05-12T02:33:22.975Z,10.76
2023-05-12T02:33:36.788Z,10.77
2023-05-12T02:33:50.811Z,10.77
2023-05-12T02:34:06.341Z,10.76
2023-05-12T02:34:19.636Z,10.76
2023-05-12T02:34:32.157Z,10.76
2023-05-12T02:34:45.833Z,10.77
2023-05-12T02:34:58.467Z,10.76
2023-05-12T02:35:11.071Z,10.75
2023-05-12T02:35:24.590Z,10.76
2023-05-12T02:35:37.087Z,10.76
2023-05-12T02:35:49.786Z,10.75
2023-05-12T02:36:02.434Z,10.76
2023-05-12T02:36:14.941Z,10.75
2023-05-12T02:36:27.438Z,10.75
2023-05-12T02:36:40.054Z,10.75
2023-05-12T02:36:53.515Z,10.75
2023-05-12T02:37:06.070Z,10.75
2023-05-12T02:37:18.588Z,10.74
2023-05-12T02:37:31.151Z,10.74
2023-05-12T02:37:43.660Z,10.72
2023-05-12T02:37:56.444Z,10.71
2023-05-12T02:38:08.954Z,10.72
2023-05-12T02:38:22.587Z,10.71
2023-05-12T02:38:35.056Z,10.70
2023-05-12T02:38:47.536Z,10.71
2023-05-12T02:39:00.034Z,10.70
2023-05-12T02:39:13.500Z,10.70
2023-05-12T02:39:26.014Z,10.71
2023-05-12T02:39:38.493Z,10.70
2023-05-12T02:39:50.969Z,10.71
2023-05-12T02:40:03.645Z,10.70
2023-05-12T02:40:17.494Z,10.69
2023-05-12T02:40:30.033Z,10.70
2023-05-12T02:40:42.715Z,10.69
2023-05-12T02:40:55.449Z,10.69
2023-05-12T02:41:07.947Z,10.68
2023-05-12T02:41:20.690Z,10.67
2023-05-12T02:41:34.805Z,10.68
2023-05-12T02:41:48.267Z,10.67
2023-05-12T02:42:00.882Z,10.67
2023-05-12T02:42:13.363Z,10.66
2023-05-12T02:42:28.913Z,10.66
2023-05-12T02:42:43.542Z,10.65
2023-05-12T02:42:56.617Z,10.65
2023-05-12T02:43:09.169Z,10.65
2023-05-12T02:43:22.725Z,10.64
2023-05-12T02:43:35.257Z,10.64
2023-05-12T02:43:47.761Z,10.62
2023-05-12T02:44:00.313Z,10.62
2023-05-12T02:44:12.843Z,10.61
2023-05-12T02:44:26.005Z,10.62
2023-05-12T02:44:38.538Z,10.60
2023-05-12T02:44:52.103Z,10.60
2023-05-12T02:45:05.355Z,10.61
2023-05-12T02:45:18.398Z,10.60
2023-05-12T02:45:31.113Z,10.59
2023-05-12T02:45:43.877Z,10.59
2023-05-12T02:45:56.462Z,10.58
2023-05-12T02:46:09.075Z,10.58
2023-05-12T02:46:22.743Z,10.57
2023-05-12T02:46:35.334Z,10.56
2023-05-12T02:46:47.819Z,10.57
2023-05-12T02:47:00.321Z,10.57
2023-05-12T02:47:12.837Z,10.57
2023-05-12T02:47:25.378Z,10.57
2023-05-12T02:47:37.987Z,10.57
2023-05-12T02:47:51.027Z,10.56
2023-05-12T02:48:04.954Z,10.56
2023-05-12T02:48:17.554Z,10.56
2023-05-12T02:48:30.038Z,10.57
2023-05-12T02:48:42.513Z,10.57
2023-05-12T02:48:55.367Z,10.58
2023-05-12T02:49:08.637Z,10.57
2023-05-12T02:49:21.165Z,10.58
2023-05-12T02:49:34.637Z,10.57
2023-05-12T02:49:47.237Z,10.57
2023-05-12T02:49:59.934Z,10.59
2023-05-12T02:50:12.469Z,10.58
2023-05-12T02:50:24.954Z,10.57
2023-05-12T02:50:37.607Z,10.57
2023-05-12T02:50:51.356Z,10.58
2023-05-12T02:51:04.268Z,10.58
2023-05-12T02:51:16.774Z,10.58
2023-05-12T02:51:29.752Z,10.58
2023-05-12T02:51:42.267Z,10.59